createdAt,value
2022-08-19T00:00:02.052Z,1007.22
2022-08-19T00:01:02.024Z,1007.20
2022-08-19T00:02:02.018Z,1007.25
2022-08-19T00:03:02.120Z,1007.19
2022-08-19T00:04:02.018Z,1007.23
2022-08-19T00:05:02.036Z,1007.26
2022-08-19T00:06:01.969Z,1007.21
2022-08-19T00:07:02.007Z,1007.18
2022-08-19T00:08:01.982Z,1007.25
2022-08-19T00:09:01.992Z,1007.23
2022-08-19T00:10:01.928Z,1007.22
2022-08-19T00:11:01.913Z,1007.20
2022-08-19T00:12:01.906Z,1007.29
2022-08-19T00:13:01.892Z,1007.25
2022-08-19T00:14:01.896Z,1007.18
2022-08-19T00:15:01.881Z,1007.25
2022-08-19T00:16:01.867Z,1007.25
2022-08-19T00:17:01.846Z,1007.24
2022-08-19T00:18:01.845Z,1007.31
2022-08-19T00:19:01.837Z,1007.32
2022-08-19T00:20:01.829Z,1007.34
2022-08-19T00:21:01.812Z,1007.28
2022-08-19T00:22:01.802Z,1007.31
2022-08-19T00:23:01.779Z,1007.27
2022-08-19T00:24:01.796Z,1007.30
2022-08-19T00:25:02.188Z,1007.26
2022-08-19T00:26:01.748Z,1007.26
2022-08-19T00:27:24.840Z,1007.26
2022-08-19T00:28:02.733Z,1007.27
2022-08-19T00:29:01.717Z,1007.27
2022-08-19T00:30:01.754Z,1007.22
2022-08-19T00:31:01.695Z,1007.22
2022-08-19T00:32:01.687Z,1007.22
2022-08-19T00:33:01.673Z,1007.22
2022-08-19T00:34:01.673Z,1007.25
2022-08-19T00:35:01.666Z,1007.26
2022-08-19T00:36:01.643Z,1007.22
2022-08-19T00:37:01.627Z,1007.26
2022-08-19T00:38:01.623Z,1007.28
2022-08-19T00:39:01.611Z,1007.30
2022-08-19T00:40:01.719Z,1007.31
2022-08-19T00:41:01.600Z,1007.24
2022-08-19T00:42:01.576Z,1007.26
2022-08-19T00:43:01.567Z,1007.30
2022-08-19T00:44:01.556Z,1007.28
2022-08-19T00:45:01.542Z,1007.26
2022-08-19T00:46:01.560Z,1007.26
2022-08-19T00:47:01.522Z,1007.24
2022-08-19T00:48:01.510Z,1007.21
2022-08-19T00:49:01.509Z,1007.19
2022-08-19T00:50:01.519Z,1007.20
2022-08-19T00:51:01.474Z,1007.14
2022-08-19T00:52:01.463Z,1007.14
2022-08-19T00:53:01.466Z,1007.16
2022-08-19T00:54:01.439Z,1007.16
2022-08-19T00:55:01.428Z,1007.24
2022-08-19T00:56:01.436Z,1007.20
2022-08-19T00:57:01.403Z,1007.14
2022-08-19T00:58:01.397Z,1007.15
2022-08-19T00:59:01.395Z,1007.17
2022-08-19T01:00:03.140Z,1007.20
2022-08-19T01:01:01.360Z,1007.20
2022-08-19T01:02:01.363Z,1007.16
2022-08-19T01:03:01.336Z,1007.13
2022-08-19T01:04:01.330Z,1007.14
2022-08-19T01:05:01.331Z,1007.04
2022-08-19T01:06:01.325Z,1007.11
2022-08-19T01:07:01.294Z,1007.09
2022-08-19T01:08:01.306Z,1007.09
2022-08-19T01:09:01.269Z,1007.06
2022-08-19T01:10:01.268Z,1007.09
2022-08-19T01:11:01.259Z,1007.06
2022-08-19T01:12:01.243Z,1007.11
2022-08-19T01:13:01.239Z,1007.02
2022-08-19T01:14:01.233Z,1007.04
2022-08-19T01:15:01.214Z,1007.07
2022-08-19T01:16:01.202Z,1007.07
2022-08-19T01:17:01.193Z,1007.09
2022-08-19T01:18:01.212Z,1007.13
2022-08-19T01:19:01.172Z,1007.06
2022-08-19T01:20:01.198Z,1007.03
2022-08-19T01:21:01.139Z,1007.07
2022-08-19T01:22:01.136Z,1007.08
2022-08-19T01:23:02.127Z,1007.11
2022-08-19T01:24:01.164Z,1007.04
2022-08-19T01:25:01.089Z,1007.08
2022-08-19T01:26:01.083Z,1007.09
2022-08-19T01:27:01.069Z,1007.03
2022-08-19T01:28:10.617Z,1007.08
2022-08-19T01:29:02.166Z,1006.99
2022-08-19T01:30:01.047Z,1006.99
2022-08-19T01:31:01.024Z,1007.06
2022-08-19T01:32:02.056Z,1007.02
2022-08-19T01:33:01.005Z,1007.02
2022-08-19T01:34:00.994Z,1007.04
2022-08-19T01:35:00.984Z,1007.00
2022-08-19T01:36:00.980Z,1006.91
2022-08-19T01:37:00.955Z,1007.04
2022-08-19T01:38:00.964Z,1006.99
2022-08-19T01:39:00.942Z,1007.02
2022-08-19T01:40:00.940Z,1007.00
2022-08-19T01:41:00.931Z,1006.97
2022-08-19T01:42:00.910Z,1006.94
2022-08-19T01:43:00.905Z,1007.03
2022-08-19T01:44:16.978Z,1007.10
2022-08-19T01:45:01.873Z,1007.04
2022-08-19T01:46:00.864Z,1007.14
2022-08-19T01:47:00.864Z,1007.09
2022-08-19T01:48:01.870Z,1007.07
2022-08-19T01:49:00.850Z,1007.10
2022-08-19T01:50:00.844Z,1007.06
2022-08-19T01:51:00.809Z,1007.15
2022-08-19T01:52:00.791Z,1007.11
2022-08-19T01:53:06.147Z,1007.08
2022-08-19T01:54:01.781Z,1007.13
2022-08-19T01:55:00.773Z,1007.15
2022-08-19T01:56:00.749Z,1007.11
2022-08-19T01:57:00.737Z,1007.08
2022-08-19T01:58:00.725Z,1007.10
2022-08-19T01:59:00.721Z,1007.09
2022-08-19T02:00:00.703Z,1007.11
2022-08-19T02:01:00.760Z,1007.11
2022-08-19T02:02:00.692Z,1007.12
2022-08-19T02:03:00.677Z,1007.10
2022-08-19T02:04:00.656Z,1007.06
2022-08-19T02:05:00.658Z,1007.17
2022-08-19T02:06:00.632Z,1007.05
2022-08-19T02:07:00.630Z,1007.13
2022-08-19T02:08:00.613Z,1007.15
2022-08-19T02:09:00.598Z,1007.16
2022-08-19T02:10:00.603Z,1007.19
2022-08-19T02:11:00.588Z,1007.16
2022-08-19T02:12:00.571Z,1007.19
2022-08-19T02:13:00.582Z,1007.16
2022-08-19T02:14:00.560Z,1007.11
2022-08-19T02:15:00.560Z,1007.05
2022-08-19T02:16:00.519Z,1007.13
2022-08-19T02:17:00.521Z,1007.12
2022-08-19T02:18:00.525Z,1007.12
2022-08-19T02:19:00.488Z,1007.11
2022-08-19T02:20:00.510Z,1007.04
2022-08-19T02:21:00.502Z,1007.03
2022-08-19T02:22:00.459Z,1007.01
2022-08-19T02:23:00.449Z,1006.98
2022-08-19T02:24:00.437Z,1007.00
2022-08-19T02:25:00.434Z,1006.99
2022-08-19T02:26:00.428Z,1006.97
2022-08-19T02:27:00.396Z,1006.99
2022-08-19T02:28:00.403Z,1006.99
2022-08-19T02:29:00.373Z,1006.96
2022-08-19T02:30:00.379Z,1006.94
2022-08-19T02:31:00.367Z,1006.97
2022-08-19T02:32:00.358Z,1006.98
2022-08-19T02:33:00.336Z,1006.93
2022-08-19T02:34:00.326Z,1006.96
2022-08-19T02:35:00.322Z,1006.92
2022-08-19T02:36:00.314Z,1006.84
2022-08-19T02:37:03.574Z,1006.91
2022-08-19T02:38:00.283Z,1006.94
2022-08-19T02:39:00.263Z,1006.97
2022-08-19T02:40:00.385Z,1006.97
2022-08-19T02:41:00.245Z,1006.94
2022-08-19T02:42:00.235Z,1006.99
2022-08-19T02:43:00.223Z,1006.98
2022-08-19T02:44:26.274Z,1006.96
2022-08-19T02:45:01.285Z,1006.96
2022-08-19T02:46:00.187Z,1006.94
2022-08-19T02:47:00.198Z,1007.00
2022-08-19T02:48:00.186Z,1007.02
2022-08-19T02:49:00.152Z,1007.02
2022-08-19T02:50:00.150Z,1007.02
2022-08-19T02:51:00.151Z,1007.02
2022-08-19T02:52:00.124Z,1007.07
2022-08-19T02:53:00.113Z,1007.02
2022-08-19T02:54:00.111Z,1007.07
2022-08-19T02:55:00.082Z,1007.03
2022-08-19T02:56:00.126Z,1007.09
2022-08-19T02:57:01.042Z,1007.10
2022-08-19T02:58:00.067Z,1007.07
2022-08-19T02:59:00.044Z,1007.05
2022-08-19T03:00:00.043Z,1007.04
2022-08-19T03:01:00.036Z,1007.05
2022-08-19T03:02:00.018Z,1007.05
2022-08-19T03:02:59.992Z,1007.01
2022-08-19T03:03:59.991Z,1007.02
2022-08-19T03:04:59.980Z,1006.99
2022-08-19T03:05:59.969Z,1006.99
2022-08-19T03:07:10.874Z,1006.99
2022-08-19T03:08:00.945Z,1007.00
2022-08-19T03:08:59.933Z,1007.02
2022-08-19T03:09:59.929Z,1007.03
2022-08-19T03:10:59.901Z,1007.10
2022-08-19T03:11:59.921Z,1007.02
2022-08-19T03:12:59.878Z,1007.02
2022-08-19T03:13:59.872Z,1007.03
2022-08-19T03:14:59.860Z,1006.98
2022-08-19T03:15:59.865Z,1007.02
2022-08-19T03:16:59.870Z,1006.96
2022-08-19T03:17:59.824Z,1006.98
2022-08-19T03:18:59.816Z,1006.95
2022-08-19T03:19:59.804Z,1006.97
2022-08-19T03:20:59.790Z,1006.99
2022-08-19T03:21:59.782Z,1006.98
2022-08-19T03:22:59.782Z,1007.05
2022-08-19T03:23:59.764Z,1006.98
2022-08-19T03:24:59.760Z,1006.96
2022-08-19T03:26:16.183Z,1007.00
2022-08-19T03:27:00.722Z,1007.02
2022-08-19T03:27:59.728Z,1006.97
2022-08-19T03:28:59.730Z,1006.90
2022-08-19T03:30:00.720Z,1006.90
2022-08-19T03:30:59.678Z,1006.96
2022-08-19T03:31:59.705Z,1006.98
2022-08-19T03:32:59.746Z,1006.90
2022-08-19T03:33:59.666Z,1006.86
2022-08-19T03:34:59.636Z,1006.93
2022-08-19T03:35:59.628Z,1006.88
2022-08-19T03:36:59.631Z,1006.89
2022-08-19T03:37:59.605Z,1006.87
2022-08-19T03:39:00.059Z,1006.93
2022-08-19T03:39:59.608Z,1006.95
2022-08-19T03:40:59.569Z,1006.95
2022-08-19T03:42:33.166Z,1006.88
2022-08-19T03:43:00.927Z,1006.90
2022-08-19T03:43:59.541Z,1006.86
2022-08-19T03:44:59.527Z,1006.85
2022-08-19T03:45:59.510Z,1006.83
2022-08-19T03:46:59.504Z,1006.89
2022-08-19T03:47:59.505Z,1006.80
2022-08-19T03:48:59.512Z,1006.85
2022-08-19T03:49:59.467Z,1006.86
2022-08-19T03:50:59.459Z,1006.88
2022-08-19T03:51:59.444Z,1006.87
2022-08-19T03:52:59.435Z,1006.91
2022-08-19T03:53:59.437Z,1006.88
2022-08-19T03:54:59.421Z,1006.91
2022-08-19T03:55:59.399Z,1006.87
2022-08-19T03:56:59.391Z,1006.84
2022-08-19T03:57:59.492Z,1006.87
2022-08-19T03:58:59.379Z,1006.83
2022-08-19T04:00:12.710Z,1006.87
2022-08-19T04:01:00.399Z,1006.87
2022-08-19T04:01:59.338Z,1006.85
2022-08-19T04:03:00.871Z,1006.89
2022-08-19T04:03:59.327Z,1006.87
2022-08-19T04:04:59.328Z,1006.85
2022-08-19T04:05:59.297Z,1006.86
2022-08-19T04:06:59.279Z,1006.87
2022-08-19T04:07:59.263Z,1006.87
2022-08-19T04:08:59.274Z,1006.86
2022-08-19T04:09:59.253Z,1006.83
2022-08-19T04:10:59.258Z,1006.85
2022-08-19T04:11:59.223Z,1006.82
2022-08-19T04:12:59.234Z,1006.83
2022-08-19T04:13:59.197Z,1006.88
2022-08-19T04:14:59.211Z,1006.89
2022-08-19T04:15:59.192Z,1006.89
2022-08-19T04:16:59.170Z,1006.79
2022-08-19T04:17:59.160Z,1006.88
2022-08-19T04:18:59.144Z,1006.83
2022-08-19T04:19:59.150Z,1006.90
2022-08-19T04:20:59.124Z,1006.91
2022-08-19T04:21:59.113Z,1006.91
2022-08-19T04:22:59.103Z,1006.91
2022-08-19T04:23:59.085Z,1006.91
2022-08-19T04:24:59.089Z,1006.87
2022-08-19T04:25:59.063Z,1006.86
2022-08-19T04:26:59.058Z,1006.86
2022-08-19T04:27:59.049Z,1006.88
2022-08-19T04:28:59.045Z,1006.88
2022-08-19T04:29:59.043Z,1006.90
2022-08-19T04:30:59.010Z,1006.93
2022-08-19T04:31:58.997Z,1006.92
2022-08-19T04:32:58.991Z,1006.84
2022-08-19T04:33:58.972Z,1006.88
2022-08-19T04:35:02.298Z,1006.93
2022-08-19T04:35:59.963Z,1006.91
2022-08-19T04:36:58.943Z,1006.93
2022-08-19T04:37:58.930Z,1006.98
2022-08-19T04:38:58.922Z,1006.97
2022-08-19T04:39:58.952Z,1006.98
2022-08-19T04:40:58.907Z,1006.97
2022-08-19T04:41:58.883Z,1006.97
2022-08-19T04:42:58.883Z,1006.97
2022-08-19T04:44:02.515Z,1006.93
2022-08-19T04:45:00.080Z,1006.94
2022-08-19T04:46:00.754Z,1006.98
2022-08-19T04:46:58.848Z,1006.94
2022-08-19T04:48:26.336Z,1006.96
2022-08-19T04:48:59.820Z,1006.94
2022-08-19T04:49:59.794Z,1006.94
2022-08-19T04:50:58.807Z,1007.00
2022-08-19T04:51:58.771Z,1007.00
2022-08-19T04:52:58.767Z,1007.06
2022-08-19T04:53:58.752Z,1007.05
2022-08-19T04:54:58.742Z,1007.04
2022-08-19T04:55:58.745Z,1007.10
2022-08-19T04:56:58.722Z,1007.12
2022-08-19T04:57:58.720Z,1007.17
2022-08-19T04:58:58.697Z,1007.13
2022-08-19T04:59:58.697Z,1007.14
2022-08-19T05:00:58.740Z,1007.12
2022-08-19T05:01:58.687Z,1007.05
2022-08-19T05:02:58.659Z,1007.06
2022-08-19T05:03:58.647Z,1007.09
2022-08-19T05:04:58.633Z,1007.04
2022-08-19T05:05:58.625Z,1007.02
2022-08-19T05:07:00.779Z,1007.02
2022-08-19T05:07:58.633Z,1006.99
2022-08-19T05:08:58.592Z,1007.06
2022-08-19T05:09:59.271Z,1007.02
2022-08-19T05:10:58.568Z,1007.13
2022-08-19T05:11:58.556Z,1007.11
2022-08-19T05:12:58.577Z,1007.13
2022-08-19T05:13:58.534Z,1007.09
2022-08-19T05:14:58.533Z,1007.04
2022-08-19T05:15:58.616Z,1007.12
2022-08-19T05:17:23.643Z,1007.10
2022-08-19T05:17:59.495Z,1007.12
2022-08-19T05:18:58.478Z,1007.13
2022-08-19T05:19:58.458Z,1007.13
2022-08-19T05:20:58.452Z,1007.09
2022-08-19T05:21:58.442Z,1007.11
2022-08-19T05:22:58.460Z,1007.04
2022-08-19T05:23:58.422Z,1007.09
2022-08-19T05:25:12.261Z,1007.11
2022-08-19T05:25:59.476Z,1007.06
2022-08-19T05:26:58.384Z,1007.12
2022-08-19T05:27:58.366Z,1007.12
2022-08-19T05:28:58.388Z,1007.13
2022-08-19T05:29:58.351Z,1007.11
2022-08-19T05:30:58.343Z,1007.15
2022-08-19T05:31:58.354Z,1007.11
2022-08-19T05:32:58.333Z,1007.21
2022-08-19T05:33:58.333Z,1007.21
2022-08-19T05:34:58.307Z,1007.17
2022-08-19T05:35:58.278Z,1007.23
2022-08-19T05:36:58.272Z,1007.23
2022-08-19T05:37:58.984Z,1007.21
2022-08-19T05:38:58.255Z,1007.20
2022-08-19T05:39:58.307Z,1007.23
2022-08-19T05:40:58.238Z,1007.25
2022-08-19T05:41:58.211Z,1007.31
2022-08-19T05:42:58.206Z,1007.20
2022-08-19T05:43:58.190Z,1007.20
2022-08-19T05:44:58.208Z,1007.18
2022-08-19T05:45:58.175Z,1007.25
2022-08-19T05:46:58.161Z,1007.23
2022-08-19T05:47:58.149Z,1007.20
2022-08-19T05:48:58.145Z,1007.22
2022-08-19T05:49:58.142Z,1007.24
2022-08-19T05:50:58.114Z,1007.23
2022-08-19T05:51:58.110Z,1007.20
2022-08-19T05:52:58.214Z,1007.22
2022-08-19T05:53:58.098Z,1007.29
2022-08-19T05:54:58.074Z,1007.28
2022-08-19T05:55:58.072Z,1007.30
2022-08-19T05:56:58.049Z,1007.21
2022-08-19T05:57:58.028Z,1007.25
2022-08-19T05:58:58.344Z,1007.32
2022-08-19T05:59:59.033Z,1007.24
2022-08-19T06:00:58.019Z,1007.32
2022-08-19T06:01:58.020Z,1007.32
2022-08-19T06:02:58.037Z,1007.20
2022-08-19T06:03:57.972Z,1007.20
2022-08-19T06:04:57.972Z,1007.26
2022-08-19T06:05:57.948Z,1007.17
2022-08-19T06:06:57.934Z,1007.22
2022-08-19T06:07:57.924Z,1007.20
2022-08-19T06:08:57.925Z,1007.14
2022-08-19T06:10:00.373Z,1007.22
2022-08-19T06:10:57.900Z,1007.22
2022-08-19T06:11:57.880Z,1007.21
2022-08-19T06:12:57.870Z,1007.28
2022-08-19T06:14:00.254Z,1007.13
2022-08-19T06:15:00.635Z,1007.25
2022-08-19T06:15:57.849Z,1007.26
2022-08-19T06:16:57.824Z,1007.25
2022-08-19T06:17:57.811Z,1007.24
2022-08-19T06:18:57.804Z,1007.29
2022-08-19T06:19:57.790Z,1007.27
2022-08-19T06:20:57.798Z,1007.26
2022-08-19T06:21:57.774Z,1007.29
2022-08-19T06:22:57.758Z,1007.25
2022-08-19T06:23:57.749Z,1007.27
2022-08-19T06:24:57.737Z,1007.24
2022-08-19T06:25:57.741Z,1007.18
2022-08-19T06:27:00.801Z,1007.24
2022-08-19T06:28:14.663Z,1007.10
2022-08-19T06:28:58.700Z,1007.15
2022-08-19T06:29:57.679Z,1007.13
2022-08-19T06:30:57.681Z,1007.10
2022-08-19T06:31:57.681Z,1007.03
2022-08-19T06:32:57.656Z,1007.14
2022-08-19T06:33:57.642Z,1007.19
2022-08-19T06:34:57.636Z,1007.19
2022-08-19T06:35:57.613Z,1007.14
2022-08-19T06:36:57.611Z,1007.19
2022-08-19T06:37:57.911Z,1007.16
2022-08-19T06:38:57.620Z,1007.12
2022-08-19T06:39:57.617Z,1007.13
2022-08-19T06:40:57.561Z,1007.14
2022-08-19T06:41:58.956Z,1007.17
2022-08-19T06:42:57.905Z,1007.13
2022-08-19T06:43:57.552Z,1007.14
2022-08-19T06:44:57.541Z,1007.16
2022-08-19T06:45:57.531Z,1007.20
2022-08-19T06:46:57.506Z,1007.23
2022-08-19T06:47:57.485Z,1007.17
2022-08-19T06:48:57.476Z,1007.17
2022-08-19T06:50:02.847Z,1007.21
2022-08-19T06:50:58.463Z,1007.13
2022-08-19T06:51:57.525Z,1007.20
2022-08-19T06:52:57.436Z,1007.19
2022-08-19T06:53:57.417Z,1007.18
2022-08-19T06:54:59.684Z,1007.17
2022-08-19T06:55:57.395Z,1007.15
2022-08-19T06:56:57.494Z,1007.15
2022-08-19T06:57:57.390Z,1007.14
2022-08-19T06:58:57.365Z,1007.17
2022-08-19T06:59:57.352Z,1007.15
2022-08-19T07:00:57.356Z,1007.11
2022-08-19T07:01:57.333Z,1007.12
2022-08-19T07:03:00.878Z,1007.20
2022-08-19T07:03:58.429Z,1007.19
2022-08-19T07:04:57.310Z,1007.16
2022-08-19T07:05:57.305Z,1007.14
2022-08-19T07:06:57.301Z,1007.16
2022-08-19T07:07:59.715Z,1007.17
2022-08-19T07:08:58.264Z,1007.15
2022-08-19T07:09:59.131Z,1007.19
2022-08-19T07:10:57.264Z,1007.12
2022-08-19T07:11:57.268Z,1007.05
2022-08-19T07:12:57.219Z,1007.06
2022-08-19T07:13:57.229Z,1007.00
2022-08-19T07:14:57.196Z,1007.03
2022-08-19T07:15:57.225Z,1007.01
2022-08-19T07:16:57.191Z,1007.05
2022-08-19T07:17:57.161Z,1007.09
2022-08-19T07:18:57.159Z,1007.05
2022-08-19T07:19:57.141Z,1007.03
2022-08-19T07:20:57.141Z,1007.06
2022-08-19T07:21:57.143Z,1007.07
2022-08-19T07:22:58.128Z,1007.04
2022-08-19T07:23:57.113Z,1007.10
2022-08-19T07:24:57.112Z,1007.08
2022-08-19T07:25:57.134Z,1007.06
2022-08-19T07:26:57.083Z,1007.06
2022-08-19T07:27:57.232Z,1007.13
2022-08-19T07:28:57.076Z,1007.10
2022-08-19T07:29:57.527Z,1007.11
2022-08-19T07:30:57.027Z,1007.16
2022-08-19T07:31:57.040Z,1007.12
2022-08-19T07:32:57.009Z,1007.21
2022-08-19T07:33:56.990Z,1007.27
2022-08-19T07:34:57.248Z,1007.25
2022-08-19T07:35:57.003Z,1007.20
2022-08-19T07:36:56.966Z,1007.21
2022-08-19T07:37:56.966Z,1007.19
2022-08-19T07:38:56.945Z,1007.19
2022-08-19T07:39:56.986Z,1007.18
2022-08-19T07:40:56.935Z,1007.22
2022-08-19T07:41:56.903Z,1007.22
2022-08-19T07:42:56.907Z,1007.23
2022-08-19T07:43:56.885Z,1007.23
2022-08-19T07:44:56.877Z,1007.22
2022-08-19T07:45:56.899Z,1007.24
2022-08-19T07:46:56.851Z,1007.23
2022-08-19T07:47:56.848Z,1007.22
2022-08-19T07:48:56.827Z,1007.30
2022-08-19T07:49:56.816Z,1007.29
2022-08-19T07:50:56.812Z,1007.30
2022-08-19T07:51:56.796Z,1007.33
2022-08-19T07:52:56.838Z,1007.35
2022-08-19T07:53:56.776Z,1007.42
2022-08-19T07:54:56.760Z,1007.35
2022-08-19T07:55:56.756Z,1007.43
2022-08-19T07:56:56.747Z,1007.45
2022-08-19T07:57:56.733Z,1007.46
2022-08-19T07:59:56.712Z,1007.49
2022-08-19T08:00:56.695Z,1007.50
2022-08-19T08:01:56.779Z,1007.48
2022-08-19T08:02:56.758Z,1007.51
2022-08-19T08:03:56.668Z,1007.56
2022-08-19T08:04:56.656Z,1007.60
2022-08-19T08:05:56.653Z,1007.56
2022-08-19T08:06:56.656Z,1007.52
2022-08-19T08:07:56.657Z,1007.56
2022-08-19T08:08:56.612Z,1007.54
2022-08-19T08:09:56.634Z,1007.55
2022-08-19T08:11:04.164Z,1007.54
2022-08-19T08:11:57.699Z,1007.58
2022-08-19T08:13:09.202Z,1007.55
2022-08-19T08:14:00.869Z,1007.58
2022-08-19T08:14:57.544Z,1007.56
2022-08-19T08:15:56.614Z,1007.58
2022-08-19T08:16:56.533Z,1007.56
2022-08-19T08:17:56.525Z,1007.54
2022-08-19T08:18:56.496Z,1007.59
2022-08-19T08:19:56.494Z,1007.57
2022-08-19T08:20:56.487Z,1007.54
2022-08-19T08:21:56.479Z,1007.57
2022-08-19T08:22:56.468Z,1007.54
2022-08-19T08:23:56.593Z,1007.57
2022-08-19T08:24:56.448Z,1007.62
2022-08-19T08:25:56.424Z,1007.53
2022-08-19T08:26:57.503Z,1007.58
2022-08-19T08:27:56.468Z,1007.61
2022-08-19T08:28:56.391Z,1007.60
2022-08-19T08:29:56.381Z,1007.62
2022-08-19T08:30:56.390Z,1007.53
2022-08-19T08:31:59.736Z,1007.62
2022-08-19T08:32:56.374Z,1007.63
2022-08-19T08:33:56.341Z,1007.69
2022-08-19T08:34:56.327Z,1007.71
2022-08-19T08:35:56.318Z,1007.71
2022-08-19T08:36:56.300Z,1007.69
2022-08-19T08:37:56.698Z,1007.74
2022-08-19T08:39:56.312Z,1007.73
2022-08-19T08:40:56.258Z,1007.73
2022-08-19T08:41:56.256Z,1007.73
2022-08-19T08:42:56.255Z,1007.74
2022-08-19T08:43:56.231Z,1007.78
2022-08-19T08:45:56.209Z,1007.67
2022-08-19T08:46:56.194Z,1007.67
2022-08-19T08:47:56.217Z,1007.66
2022-08-19T08:48:56.174Z,1007.69
2022-08-19T08:49:56.170Z,1007.62
2022-08-19T08:50:56.152Z,1007.60
2022-08-19T08:51:59.822Z,1007.68
2022-08-19T08:52:56.131Z,1007.56
2022-08-19T08:53:56.293Z,1007.62
2022-08-19T08:54:56.115Z,1007.54
2022-08-19T08:55:56.097Z,1007.61
2022-08-19T08:56:56.091Z,1007.66
2022-08-19T08:57:56.543Z,1007.61
2022-08-19T08:58:56.067Z,1007.61
2022-08-19T08:59:56.058Z,1007.63
2022-08-19T09:00:56.045Z,1007.62
2022-08-19T09:01:56.075Z,1007.56
2022-08-19T09:02:56.043Z,1007.65
2022-08-19T09:03:56.027Z,1007.64
2022-08-19T09:04:57.012Z,1007.69
2022-08-19T09:05:55.990Z,1007.66
2022-08-19T09:06:55.978Z,1007.66
2022-08-19T09:07:56.096Z,1007.57
2022-08-19T09:08:56.996Z,1007.54
2022-08-19T09:09:56.111Z,1007.53
2022-08-19T09:10:55.964Z,1007.59
2022-08-19T09:11:55.927Z,1007.58
2022-08-19T09:12:55.927Z,1007.60
2022-08-19T09:13:55.903Z,1007.62
2022-08-19T09:14:55.916Z,1007.60
2022-08-19T09:15:55.903Z,1007.63
2022-08-19T09:16:55.871Z,1007.63
2022-08-19T09:17:55.915Z,1007.65
2022-08-19T09:18:55.847Z,1007.66
2022-08-19T09:19:55.856Z,1007.66
2022-08-19T09:20:55.842Z,1007.71
2022-08-19T09:21:55.817Z,1007.68
2022-08-19T09:22:55.808Z,1007.68
2022-08-19T09:23:55.806Z,1007.67
2022-08-19T09:24:55.830Z,1007.65
2022-08-19T09:25:55.793Z,1007.70
2022-08-19T09:26:55.770Z,1007.66
2022-08-19T09:27:56.123Z,1007.63
2022-08-19T09:28:56.739Z,1007.67
2022-08-19T09:29:55.737Z,1007.69
2022-08-19T09:30:55.734Z,1007.72
2022-08-19T09:31:55.713Z,1007.65
2022-08-19T09:32:55.693Z,1007.69
2022-08-19T09:33:55.684Z,1007.65
2022-08-19T09:34:55.786Z,1007.57
2022-08-19T09:35:55.730Z,1007.64
2022-08-19T09:36:55.752Z,1007.56
2022-08-19T09:37:57.809Z,1007.50
2022-08-19T09:38:55.687Z,1007.56
2022-08-19T09:39:55.738Z,1007.64
2022-08-19T09:40:55.619Z,1007.57
2022-08-19T09:41:55.672Z,1007.60
2022-08-19T09:42:55.587Z,1007.62
2022-08-19T09:43:55.581Z,1007.56
2022-08-19T09:44:55.571Z,1007.64
2022-08-19T09:45:55.558Z,1007.56
2022-08-19T09:46:55.583Z,1007.60
2022-08-19T09:47:55.819Z,1007.58
2022-08-19T09:48:55.523Z,1007.57
2022-08-19T09:49:55.520Z,1007.60
2022-08-19T09:50:55.501Z,1007.58
2022-08-19T09:51:55.506Z,1007.67
2022-08-19T09:52:57.272Z,1007.64
2022-08-19T09:53:55.495Z,1007.58
2022-08-19T09:54:55.461Z,1007.62
2022-08-19T09:55:55.449Z,1007.58
2022-08-19T09:56:55.444Z,1007.56
2022-08-19T09:57:55.571Z,1007.55
2022-08-19T09:58:55.440Z,1007.53
2022-08-19T09:59:55.409Z,1007.56
2022-08-19T10:00:55.428Z,1007.54
2022-08-19T10:01:55.391Z,1007.57
2022-08-19T10:02:56.371Z,1007.53
2022-08-19T10:03:55.361Z,1007.50
2022-08-19T10:04:55.369Z,1007.60
2022-08-19T10:05:55.599Z,1007.58
2022-08-19T10:06:55.451Z,1007.55
2022-08-19T10:07:55.430Z,1007.54
2022-08-19T10:08:55.302Z,1007.49
2022-08-19T10:09:55.311Z,1007.44
2022-08-19T10:10:55.305Z,1007.46
2022-08-19T10:11:55.283Z,1007.53
2022-08-19T10:12:55.291Z,1007.53
2022-08-19T10:13:55.297Z,1007.57
2022-08-19T10:14:55.236Z,1007.48
2022-08-19T10:15:55.719Z,1007.52
2022-08-19T10:16:55.241Z,1007.46
2022-08-19T10:17:55.520Z,1007.52
2022-08-19T10:18:58.914Z,1007.54
2022-08-19T10:19:56.130Z,1007.54
2022-08-19T10:20:55.175Z,1007.55
2022-08-19T10:21:55.787Z,1007.45
2022-08-19T10:22:56.161Z,1007.40
2022-08-19T10:23:55.139Z,1007.41
2022-08-19T10:24:55.132Z,1007.40
2022-08-19T10:25:55.116Z,1007.42
2022-08-19T10:26:57.130Z,1007.46
2022-08-19T10:27:56.014Z,1007.45
2022-08-19T10:28:55.099Z,1007.41
2022-08-19T10:29:55.070Z,1007.38
2022-08-19T10:30:55.071Z,1007.45
2022-08-19T10:32:01.215Z,1007.39
2022-08-19T10:32:56.035Z,1007.43
2022-08-19T10:33:55.045Z,1007.40
2022-08-19T10:34:57.287Z,1007.43
2022-08-19T10:35:56.904Z,1007.48
2022-08-19T10:36:56.668Z,1007.46
2022-08-19T10:37:57.206Z,1007.47
2022-08-19T10:38:56.988Z,1007.41
2022-08-19T10:39:55.058Z,1007.42
2022-08-19T10:40:54.951Z,1007.41
2022-08-19T10:41:54.953Z,1007.41
2022-08-19T10:42:54.923Z,1007.39
2022-08-19T10:43:54.915Z,1007.36
2022-08-19T10:44:54.939Z,1007.47
2022-08-19T10:45:54.895Z,1007.37
2022-08-19T10:46:54.883Z,1007.38
2022-08-19T10:47:55.083Z,1007.47
2022-08-19T10:48:54.865Z,1007.45
2022-08-19T10:49:54.904Z,1007.45
2022-08-19T10:50:54.894Z,1007.37
2022-08-19T10:51:54.828Z,1007.37
2022-08-19T10:52:55.220Z,1007.44
2022-08-19T10:53:54.831Z,1007.45
2022-08-19T10:54:54.850Z,1007.47
2022-08-19T10:55:54.826Z,1007.51
2022-08-19T10:56:54.772Z,1007.46
2022-08-19T10:58:02.263Z,1007.46
2022-08-19T10:58:55.759Z,1007.44
2022-08-19T10:59:54.757Z,1007.40
2022-08-19T11:00:54.764Z,1007.41
2022-08-19T11:01:54.720Z,1007.45
2022-08-19T11:02:54.706Z,1007.41
2022-08-19T11:03:54.693Z,1007.42
2022-08-19T11:04:54.707Z,1007.40
2022-08-19T11:05:54.676Z,1007.44
2022-08-19T11:06:54.661Z,1007.38
2022-08-19T11:07:54.785Z,1007.37
2022-08-19T11:08:54.640Z,1007.40
2022-08-19T11:09:54.642Z,1007.39
2022-08-19T11:10:54.825Z,1007.44
2022-08-19T11:11:54.607Z,1007.42
2022-08-19T11:12:54.594Z,1007.38
2022-08-19T11:13:54.602Z,1007.45
2022-08-19T11:14:54.572Z,1007.48
2022-08-19T11:15:54.570Z,1007.48
2022-08-19T11:16:54.562Z,1007.43
2022-08-19T11:17:54.737Z,1007.47
2022-08-19T11:18:54.530Z,1007.47
2022-08-19T11:19:54.543Z,1007.48
2022-08-19T11:20:54.516Z,1007.39
2022-08-19T11:21:54.526Z,1007.52
2022-08-19T11:22:54.483Z,1007.46
2022-08-19T11:23:54.476Z,1007.41
2022-08-19T11:24:54.464Z,1007.41
2022-08-19T11:25:54.470Z,1007.39
2022-08-19T11:26:54.452Z,1007.38
2022-08-19T11:27:54.604Z,1007.33
2022-08-19T11:28:54.418Z,1007.33
2022-08-19T11:29:54.456Z,1007.31
2022-08-19T11:30:54.401Z,1007.35
2022-08-19T11:31:54.400Z,1007.28
2022-08-19T11:32:54.372Z,1007.31
2022-08-19T11:33:54.366Z,1007.33
2022-08-19T11:34:54.353Z,1007.36
2022-08-19T11:35:54.362Z,1007.34
2022-08-19T11:36:54.342Z,1007.31
2022-08-19T11:37:54.471Z,1007.39
2022-08-19T11:38:54.319Z,1007.29
2022-08-19T11:39:54.337Z,1007.35
2022-08-19T11:40:54.317Z,1007.30
2022-08-19T11:41:54.326Z,1007.30
2022-08-19T11:42:54.262Z,1007.28
2022-08-19T11:43:54.280Z,1007.24
2022-08-19T11:44:54.292Z,1007.22
2022-08-19T11:45:54.280Z,1007.24
2022-08-19T11:46:54.263Z,1007.21
2022-08-19T11:47:54.430Z,1007.22
2022-08-19T11:48:54.218Z,1007.22
2022-08-19T11:49:54.208Z,1007.23
2022-08-19T11:50:54.698Z,1007.21
2022-08-19T11:51:54.212Z,1007.22
2022-08-19T11:52:54.175Z,1007.24
2022-08-19T11:53:54.235Z,1007.21
2022-08-19T11:54:54.193Z,1007.23
2022-08-19T11:55:54.131Z,1007.19
2022-08-19T11:56:54.170Z,1007.25
2022-08-19T11:57:54.397Z,1007.17
2022-08-19T11:58:54.087Z,1007.21
2022-08-19T11:59:54.084Z,1007.27
2022-08-19T12:00:54.078Z,1007.22
2022-08-19T12:01:54.069Z,1007.23
2022-08-19T12:02:54.059Z,1007.20
2022-08-19T12:03:54.136Z,1007.14
2022-08-19T12:04:54.024Z,1007.13
2022-08-19T12:05:54.028Z,1007.11
2022-08-19T12:06:54.072Z,1007.09
2022-08-19T12:07:54.148Z,1007.09